This is the latest recevied weather packets stored in our database for station/object ZL1CTS-13. If no packets are shown the sender has not sent any weather packets the latest 10 day(s).
| Time | Temp. | Humidity | Pressure | Rain* | Wind** | Luminosity | Snow |
|---|---|---|---|---|---|---|---|
| 1777593004 | 19.44° C | 51% | 1027 hPa | 0 mm | - | - | - |
| 1777592403 | 18.89° C | 52% | 1027.1 hPa | 0 mm | - | - | - |
| 1777591804 | 19.44° C | 49% | 1027.1 hPa | 0 mm | - | - | - |
| 1777591204 | 20° C | 44% | 1027.1 hPa | 0 mm | - | - | - |
| 1777590604 | 21.11° C | 43% | 1027.1 hPa | 0 mm | - | - | - |
| 1777590004 | 21.11° C | 45% | 1027.1 hPa | 0 mm | - | - | - |
| 1777589404 | 22.22° C | 46% | 1027.1 hPa | 0 mm | - | - | - |
| 1777588804 | 20.56° C | 50% | 1027.2 hPa | 0 mm | - | - | - |
| 1777588204 | 20.56° C | 50% | 1027.1 hPa | 0 mm | - | - | - |
| 1777587604 | 21.11° C | 50% | 1027.3 hPa | 0 mm | - | - | - |
| 1777587004 | 20.56° C | 52% | 1027.4 hPa | 0 mm | - | - | - |
| 1777586404 | 19.44° C | 57% | 1027.4 hPa | 0 mm | - | - | - |
| 1777585804 | 18.33° C | 62% | 1027.3 hPa | 0 mm | - | - | - |
| 1777585204 | 16.67° C | 70% | 1027.3 hPa | 0 mm | - | - | - |
| 1777584604 | 13.89° C | 79% | 1027.3 hPa | 0 mm | - | - | - |
| 1777584006 | 11.67° C | 82% | 1027.3 hPa | 0 mm | - | - | - |
| 1777583405 | 11.11° C | 85% | 1027.4 hPa | 0 mm | - | - | - |
| 1777582805 | 10.56° C | 88% | 1027.3 hPa | 0 mm | - | - | - |
| 1777582205 | 10° C | 91% | 1027.1 hPa | 0 mm | - | - | - |
| 1777581604 | 9.44° C | 91% | 1027.1 hPa | 0 mm | - | - | - |
| 1777581004 | 8.89° C | 92% | 1026.9 hPa | 0 mm | - | - | - |
| 1777580404 | 8.33° C | 92% | 1026.8 hPa | 0 mm | - | - | - |
| 1777579804 | 7.78° C | 92% | 1026.8 hPa | 0 mm | - | - | - |
| 1777579204 | 7.78° C | 93% | 1026.6 hPa | 0 mm | - | - | - |
| 1777578604 | 7.22° C | 93% | 1026.6 hPa | 0 mm | - | - | - |
* Rain latest hour (hover to see other rain measurements)
** Current wind speed in m/s (hover to see current wind gust speed)